createdAt,value
2019-01-24T00:00:17.440Z,-2.34
2019-01-24T00:02:50.172Z,-2.35
2019-01-24T00:05:23.049Z,-2.38
2019-01-24T00:07:56.619Z,-2.34
2019-01-24T00:10:29.357Z,-2.43
2019-01-24T00:13:02.130Z,-2.45
2019-01-24T00:15:34.879Z,-2.54
2019-01-24T00:18:07.698Z,-2.51
2019-01-24T00:20:40.417Z,-2.47
2019-01-24T00:23:13.092Z,-2.50
2019-01-24T00:25:45.986Z,-2.42
2019-01-24T00:28:18.798Z,-2.45
2019-01-24T00:30:51.535Z,-2.44
2019-01-24T00:33:24.254Z,-2.40
2019-01-24T00:35:57.097Z,-2.52
2019-01-24T00:38:29.852Z,-2.46
2019-01-24T00:41:02.674Z,-2.47
2019-01-24T00:43:35.542Z,-2.43
2019-01-24T00:46:08.328Z,-2.43
2019-01-24T00:48:41.017Z,-2.57
2019-01-24T00:51:13.905Z,-2.54
2019-01-24T00:53:46.656Z,-2.55
2019-01-24T00:56:19.325Z,-2.52
2019-01-24T00:58:52.070Z,-2.52
2019-01-24T01:01:24.779Z,-2.56
2019-01-24T01:03:57.416Z,-2.53
2019-01-24T01:06:30.244Z,-2.64
2019-01-24T01:09:02.227Z,-2.65
2019-01-24T01:11:35.042Z,-2.67
2019-01-24T01:14:07.920Z,-2.70
2019-01-24T01:16:40.631Z,-2.61
2019-01-24T01:19:13.332Z,-2.68
2019-01-24T01:21:46.142Z,-2.72
2019-01-24T01:24:19.021Z,-2.73
2019-01-24T01:26:51.769Z,-2.72
2019-01-24T01:29:24.575Z,-2.70
2019-01-24T01:31:57.392Z,-2.73
2019-01-24T01:34:36.140Z,-2.75
2019-01-24T01:37:04.683Z,-2.75
2019-01-24T01:39:37.419Z,-2.77
2019-01-24T01:42:10.178Z,-2.78
2019-01-24T01:44:42.864Z,-2.76
2019-01-24T01:47:15.571Z,-2.83
2019-01-24T01:49:48.346Z,-2.92
2019-01-24T01:52:21.359Z,-2.94
2019-01-24T01:54:54.085Z,-2.98
2019-01-24T01:57:26.873Z,-2.91
2019-01-24T01:59:59.642Z,-2.94
2019-01-24T02:02:32.476Z,-3.00
2019-01-24T02:05:07.437Z,-3.04
2019-01-24T02:07:40.327Z,-3.06
2019-01-24T02:10:17.036Z,-3.10
2019-01-24T02:12:50.078Z,-3.13
2019-01-24T02:15:22.767Z,-3.18
2019-01-24T02:17:55.488Z,-3.19
2019-01-24T02:20:28.218Z,-3.22
2019-01-24T02:23:01.048Z,-3.23
2019-01-24T02:25:33.819Z,-3.16
2019-01-24T02:28:06.761Z,-3.15
2019-01-24T02:30:39.539Z,-3.12
2019-01-24T02:33:13.427Z,-3.11
2019-01-24T02:35:46.257Z,-3.14
2019-01-24T02:38:19.149Z,-3.05
2019-01-24T02:40:51.872Z,-3.06
2019-01-24T02:43:24.616Z,-3.05
2019-01-24T02:45:57.313Z,-3.07
2019-01-24T02:48:29.939Z,-2.99
2019-01-24T02:51:02.689Z,-2.97
2019-01-24T02:53:35.323Z,-2.95
2019-01-24T02:56:08.085Z,-2.90
2019-01-24T02:58:40.821Z,-2.89
2019-01-24T03:01:13.570Z,-2.97
2019-01-24T03:03:46.385Z,-3.02
2019-01-24T03:06:19.049Z,-3.04
2019-01-24T03:08:51.803Z,-3.03
2019-01-24T03:11:24.465Z,-2.90
2019-01-24T03:13:57.210Z,-2.97
2019-01-24T03:16:29.957Z,-2.84
2019-01-24T03:19:02.799Z,-2.84
2019-01-24T03:21:35.633Z,-2.84
2019-01-24T03:24:08.516Z,-2.84
2019-01-24T03:26:41.269Z,-2.87
2019-01-24T03:29:13.996Z,-2.92
2019-01-24T03:31:46.888Z,-3.06
2019-01-24T03:34:19.630Z,-3.05
2019-01-24T03:36:53.218Z,-3.03
2019-01-24T03:39:26.383Z,-3.05
2019-01-24T03:41:59.117Z,-2.99
2019-01-24T03:44:31.788Z,-3.05
2019-01-24T03:47:04.574Z,-3.12
2019-01-24T03:49:37.355Z,-3.17
2019-01-24T03:52:10.078Z,-3.13
2019-01-24T03:54:42.754Z,-3.10
2019-01-24T03:57:15.432Z,-3.06
2019-01-24T03:59:48.157Z,-3.02
2019-01-24T04:02:20.812Z,-2.98
2019-01-24T04:04:53.425Z,-3.05
2019-01-24T04:07:26.047Z,-3.05
2019-01-24T04:09:58.703Z,-2.99
2019-01-24T04:12:31.021Z,-2.99
2019-01-24T04:15:03.742Z,-2.97
2019-01-24T04:17:36.566Z,-2.95
2019-01-24T04:20:10.788Z,-3.04
2019-01-24T04:22:43.353Z,-3.11
2019-01-24T04:25:16.447Z,-3.10
2019-01-24T04:27:49.085Z,-3.08
2019-01-24T04:30:24.274Z,-3.09
2019-01-24T04:32:56.939Z,-3.06
2019-01-24T04:35:29.569Z,-2.98
2019-01-24T04:38:02.281Z,-2.99
2019-01-24T04:40:35.024Z,-3.08
2019-01-24T04:43:07.790Z,-3.16
2019-01-24T04:45:40.442Z,-3.16
2019-01-24T04:48:13.097Z,-3.12
2019-01-24T04:50:45.776Z,-3.13
2019-01-24T04:53:18.449Z,-3.08
2019-01-24T04:55:50.990Z,-2.98
2019-01-24T04:58:23.641Z,-2.90
2019-01-24T05:00:56.299Z,-2.86
2019-01-24T05:03:28.986Z,-2.98
2019-01-24T05:06:01.755Z,-2.87
2019-01-24T05:08:34.352Z,-2.81
2019-01-24T05:11:06.984Z,-2.89
2019-01-24T05:13:39.742Z,-2.81
2019-01-24T05:16:12.413Z,-2.82
2019-01-24T05:18:45.075Z,-2.84
2019-01-24T05:21:17.983Z,-2.90
2019-01-24T05:23:50.656Z,-2.84
2019-01-24T05:26:23.272Z,-2.78
2019-01-24T05:28:55.963Z,-2.83
2019-01-24T05:31:28.622Z,-2.75
2019-01-24T05:34:01.206Z,-2.74
2019-01-24T05:36:33.861Z,-2.94
2019-01-24T05:39:09.487Z,-2.92
2019-01-24T05:41:42.226Z,-2.90
2019-01-24T05:44:14.921Z,-2.79
2019-01-24T05:46:47.490Z,-2.74
2019-01-24T05:49:20.096Z,-2.79
2019-01-24T05:51:52.861Z,-2.94
2019-01-24T05:54:25.513Z,-3.00
2019-01-24T05:56:58.104Z,-2.98
2019-01-24T05:59:30.878Z,-3.04
2019-01-24T06:02:03.796Z,-2.99
2019-01-24T06:04:36.424Z,-3.00
2019-01-24T06:07:08.979Z,-2.96
2019-01-24T06:09:41.695Z,-3.07
2019-01-24T06:12:14.352Z,-3.07
2019-01-24T06:14:47.164Z,-3.01
2019-01-24T06:17:19.892Z,-3.02
2019-01-24T06:19:52.632Z,-3.06
2019-01-24T06:22:25.590Z,-3.11
2019-01-24T06:24:58.201Z,-3.17
2019-01-24T06:27:30.927Z,-3.13
2019-01-24T06:30:03.660Z,-3.12
2019-01-24T06:32:36.288Z,-3.10
2019-01-24T06:35:09.413Z,-3.03
2019-01-24T06:37:42.358Z,-3.05
2019-01-24T06:40:16.986Z,-3.07
2019-01-24T06:42:49.652Z,-3.12
2019-01-24T06:45:23.774Z,-3.14
2019-01-24T06:47:56.472Z,-3.17
2019-01-24T06:50:29.065Z,-3.15
2019-01-24T06:53:01.727Z,-3.19
2019-01-24T06:55:34.441Z,-3.20
2019-01-24T06:58:07.112Z,-3.11
2019-01-24T07:00:39.875Z,-3.09
2019-01-24T07:03:13.526Z,-3.07
2019-01-24T07:05:46.193Z,-3.01
2019-01-24T07:08:19.048Z,-2.94
2019-01-24T07:10:51.763Z,-2.91
2019-01-24T07:13:25.165Z,-2.90
2019-01-24T07:15:57.893Z,-2.91
2019-01-24T07:18:30.703Z,-2.95
2019-01-24T07:21:03.496Z,-2.99
2019-01-24T07:23:36.091Z,-2.92
2019-01-24T07:26:08.781Z,-2.81
2019-01-24T07:28:41.434Z,-2.93
2019-01-24T07:31:14.210Z,-2.92
2019-01-24T07:33:46.795Z,-2.91
2019-01-24T07:36:19.351Z,-2.90
2019-01-24T07:38:52.225Z,-2.91
2019-01-24T07:41:24.211Z,-2.88
2019-01-24T07:43:56.966Z,-2.79
2019-01-24T07:46:29.621Z,-2.84
2019-01-24T07:49:02.420Z,-2.73
2019-01-24T07:51:35.231Z,-2.68
2019-01-24T07:54:07.952Z,-2.72
2019-01-24T07:56:40.706Z,-2.74
2019-01-24T07:59:13.373Z,-2.63
2019-01-24T08:01:47.136Z,-2.49
2019-01-24T08:04:19.834Z,-2.41
2019-01-24T08:06:52.553Z,-2.46
2019-01-24T08:09:25.165Z,-2.35
2019-01-24T08:11:57.856Z,-2.27
2019-01-24T08:14:30.835Z,-2.32
2019-01-24T08:17:03.661Z,-2.29
2019-01-24T08:19:36.339Z,-2.24
2019-01-24T08:22:08.995Z,-2.15
2019-01-24T08:24:41.638Z,-2.11
2019-01-24T08:27:14.240Z,-2.20
2019-01-24T08:29:46.980Z,-2.12
2019-01-24T08:32:19.622Z,-2.23
2019-01-24T08:34:52.278Z,-2.33
2019-01-24T08:37:26.068Z,-2.36
2019-01-24T08:39:58.691Z,-2.21
2019-01-24T08:42:31.371Z,-2.29
2019-01-24T08:45:04.813Z,-2.28
2019-01-24T08:47:37.527Z,-2.51
2019-01-24T08:50:14.444Z,-2.54
2019-01-24T08:52:47.192Z,-2.53
2019-01-24T08:55:29.979Z,-2.50
2019-01-24T08:58:02.629Z,-2.50
2019-01-24T09:00:35.323Z,-2.43
2019-01-24T09:03:08.210Z,-2.26
2019-01-24T09:05:40.875Z,-1.93
2019-01-24T09:08:13.621Z,-1.79
2019-01-24T09:10:46.313Z,-2.08
2019-01-24T09:13:18.914Z,-2.17
2019-01-24T09:15:51.511Z,-1.99
2019-01-24T09:18:24.189Z,-1.84
2019-01-24T09:20:56.989Z,-1.73
2019-01-24T09:23:29.637Z,-1.67
2019-01-24T09:26:02.410Z,-1.71
2019-01-24T09:28:35.033Z,-2.04
2019-01-24T09:31:07.660Z,-2.12
2019-01-24T09:33:40.317Z,-2.14
2019-01-24T09:36:13.060Z,-2.10
2019-01-24T09:38:45.713Z,-2.04
2019-01-24T09:41:18.412Z,-1.96
2019-01-24T09:43:51.044Z,-2.05
2019-01-24T09:46:23.756Z,-2.05
2019-01-24T09:48:56.479Z,-2.20
2019-01-24T09:51:29.175Z,-2.35
2019-01-24T09:54:01.900Z,-2.21
2019-01-24T09:56:34.575Z,-2.15
2019-01-24T09:59:07.157Z,-2.16
2019-01-24T10:01:40.055Z,-2.19
2019-01-24T10:04:12.723Z,-2.10
2019-01-24T10:06:45.418Z,-2.03
2019-01-24T10:09:18.066Z,-1.77
2019-01-24T10:11:50.709Z,-1.67
2019-01-24T10:14:23.402Z,-1.57
2019-01-24T10:16:56.149Z,-1.28
2019-01-24T10:19:28.975Z,-1.09
2019-01-24T10:22:01.578Z,-1.19
2019-01-24T10:24:34.320Z,-1.03
2019-01-24T10:27:07.128Z,-0.97
2019-01-24T10:29:39.710Z,-1.15
2019-01-24T10:32:12.507Z,-1.44
2019-01-24T10:34:45.138Z,-1.55
2019-01-24T10:37:17.720Z,-1.54
2019-01-24T10:39:50.452Z,-1.47
2019-01-24T10:42:23.077Z,-1.59
2019-01-24T10:44:55.749Z,-1.51
2019-01-24T10:47:28.465Z,-1.35
2019-01-24T10:50:01.174Z,-1.17
2019-01-24T10:52:33.818Z,-1.34
2019-01-24T10:55:13.587Z,-1.31
2019-01-24T10:57:42.645Z,-1.03
2019-01-24T11:00:20.386Z,-1.04
2019-01-24T11:02:53.116Z,-1.38
2019-01-24T11:05:25.793Z,-1.35
2019-01-24T11:07:58.441Z,-1.11
2019-01-24T11:10:31.249Z,-1.01
2019-01-24T11:13:03.908Z,-0.96
2019-01-24T11:15:36.499Z,-1.26
2019-01-24T11:18:09.741Z,-1.57
2019-01-24T11:20:42.517Z,-1.87
2019-01-24T11:23:15.163Z,-1.86
2019-01-24T11:25:47.801Z,-2.00
2019-01-24T11:28:20.642Z,-2.00
2019-01-24T11:30:53.306Z,-2.07
2019-01-24T11:33:25.949Z,-2.31
2019-01-24T11:35:58.648Z,-2.40
2019-01-24T11:38:31.328Z,-2.20
2019-01-24T11:41:04.059Z,-2.26
2019-01-24T11:43:36.710Z,-2.35
2019-01-24T11:46:09.444Z,-2.32
2019-01-24T11:48:42.309Z,-2.25
2019-01-24T11:51:15.072Z,-2.33
2019-01-24T11:53:53.058Z,-2.31
2019-01-24T11:56:22.105Z,-2.35
2019-01-24T11:58:54.808Z,-2.32
2019-01-24T12:01:27.528Z,-2.28
2019-01-24T12:04:00.222Z,-2.18
2019-01-24T12:06:32.947Z,-2.24
2019-01-24T12:09:08.386Z,-2.26
2019-01-24T12:11:41.067Z,-2.31
2019-01-24T12:14:13.893Z,-2.38
2019-01-24T12:16:46.573Z,-2.38
2019-01-24T12:19:19.170Z,-2.27
2019-01-24T12:21:51.863Z,-2.13
2019-01-24T12:24:24.434Z,-2.13
2019-01-24T12:26:57.126Z,-1.90
2019-01-24T12:29:29.882Z,-2.04
2019-01-24T12:32:02.542Z,-2.09
2019-01-24T12:34:36.372Z,-2.07
2019-01-24T12:37:11.381Z,-2.16
2019-01-24T12:39:43.380Z,-2.15
2019-01-24T12:42:16.090Z,-2.19
2019-01-24T12:44:49.681Z,-2.15
2019-01-24T12:47:22.318Z,-2.04
2019-01-24T12:49:54.959Z,-2.01
2019-01-24T12:52:27.615Z,-1.90
2019-01-24T12:55:00.314Z,-1.84
2019-01-24T12:57:32.961Z,-1.86
2019-01-24T13:00:09.051Z,-1.99
2019-01-24T13:02:41.760Z,-1.99
2019-01-24T13:05:14.562Z,-1.99
2019-01-24T13:07:47.426Z,-2.19
2019-01-24T13:10:25.984Z,-2.10
2019-01-24T13:12:58.622Z,-2.15
2019-01-24T13:15:33.010Z,-2.10
2019-01-24T13:18:06.231Z,-2.21
2019-01-24T13:20:38.800Z,-2.35
2019-01-24T13:23:11.485Z,-2.43
2019-01-24T13:25:44.113Z,-2.49
2019-01-24T13:28:16.739Z,-2.40
2019-01-24T13:30:49.535Z,-2.43
2019-01-24T13:33:22.382Z,-2.39
2019-01-24T13:35:54.970Z,-2.42
2019-01-24T13:38:27.731Z,-2.39
2019-01-24T13:41:00.498Z,-2.49
2019-01-24T13:43:33.297Z,-2.51
2019-01-24T13:46:06.625Z,-2.49
2019-01-24T13:48:39.301Z,-2.47
2019-01-24T13:51:11.962Z,-2.32
2019-01-24T13:53:44.606Z,-2.25
2019-01-24T13:56:17.202Z,-2.03
2019-01-24T13:58:49.970Z,-2.00
2019-01-24T14:01:22.557Z,-1.87
2019-01-24T14:04:15.616Z,-1.92
2019-01-24T14:06:48.295Z,-2.04
2019-01-24T14:09:21.034Z,-1.94
2019-01-24T14:11:53.623Z,-1.93
2019-01-24T14:14:26.422Z,-1.90
2019-01-24T14:16:59.109Z,-1.89
2019-01-24T14:19:31.956Z,-2.07
2019-01-24T14:22:05.165Z,-1.98
2019-01-24T14:24:37.152Z,-2.03
2019-01-24T14:27:09.451Z,-2.10
2019-01-24T14:29:42.158Z,-2.15
2019-01-24T14:32:14.901Z,-2.32
2019-01-24T14:34:48.324Z,-2.24
2019-01-24T14:37:21.059Z,-2.09
2019-01-24T14:39:53.940Z,-1.99
2019-01-24T14:42:26.529Z,-1.97
2019-01-24T14:44:59.235Z,-2.04
2019-01-24T14:47:31.932Z,-2.16
2019-01-24T14:50:05.281Z,-2.13
2019-01-24T14:52:37.909Z,-2.06
2019-01-24T14:55:12.271Z,-1.98
2019-01-24T14:57:45.253Z,-2.05
2019-01-24T15:00:31.225Z,-2.10
2019-01-24T15:03:03.996Z,-2.00
2019-01-24T15:05:36.965Z,-2.07
2019-01-24T15:08:09.940Z,-2.20
2019-01-24T15:10:42.643Z,-2.11
2019-01-24T15:13:15.309Z,-2.21
2019-01-24T15:15:48.075Z,-2.16
2019-01-24T15:18:20.669Z,-2.21
2019-01-24T15:20:53.259Z,-2.17
2019-01-24T15:23:26.085Z,-2.19
2019-01-24T15:25:58.648Z,-2.08
2019-01-24T15:28:31.362Z,-2.13
2019-01-24T15:31:04.188Z,-2.17
2019-01-24T15:33:36.970Z,-2.14
2019-01-24T15:36:09.851Z,-2.23
2019-01-24T15:38:42.596Z,-2.24
2019-01-24T15:41:15.285Z,-2.25
2019-01-24T15:43:47.898Z,-2.25
2019-01-24T15:46:20.567Z,-2.24
2019-01-24T15:48:53.270Z,-2.24
2019-01-24T15:51:25.936Z,-2.30
2019-01-24T15:53:58.799Z,-2.30
2019-01-24T15:56:31.578Z,-2.36
2019-01-24T15:59:04.152Z,-2.39
2019-01-24T16:01:36.949Z,-2.38
2019-01-24T16:04:09.717Z,-2.38
2019-01-24T16:06:42.500Z,-2.43
2019-01-24T16:09:15.219Z,-2.41
2019-01-24T16:11:47.814Z,-2.43
2019-01-24T16:14:20.527Z,-2.41
2019-01-24T16:16:53.167Z,-2.48
2019-01-24T16:19:25.909Z,-2.48
2019-01-24T16:21:58.596Z,-2.55
2019-01-24T16:24:31.212Z,-2.55
2019-01-24T16:27:03.838Z,-2.58
2019-01-24T16:29:36.564Z,-2.59
2019-01-24T16:32:09.787Z,-2.74
2019-01-24T16:34:42.499Z,-2.75
2019-01-24T16:37:15.253Z,-2.79
2019-01-24T16:39:47.889Z,-2.79
2019-01-24T16:42:20.613Z,-2.77
2019-01-24T16:44:53.180Z,-2.85
2019-01-24T16:47:25.802Z,-2.87
2019-01-24T16:49:58.504Z,-2.88
2019-01-24T16:52:33.136Z,-2.93
2019-01-24T16:55:07.607Z,-2.96
2019-01-24T16:57:40.205Z,-3.03
2019-01-24T17:00:19.099Z,-3.11
2019-01-24T17:02:51.762Z,-3.04
2019-01-24T17:05:24.455Z,-3.09
2019-01-24T17:07:57.613Z,-3.16
2019-01-24T17:10:30.980Z,-3.21
2019-01-24T17:13:03.618Z,-3.26
2019-01-24T17:15:36.262Z,-3.29
2019-01-24T17:18:09.646Z,-3.30
2019-01-24T17:20:42.497Z,-3.31
2019-01-24T17:23:15.089Z,-3.35
2019-01-24T17:25:47.776Z,-3.35
2019-01-24T17:28:20.412Z,-3.38
2019-01-24T17:30:53.059Z,-3.38
2019-01-24T17:33:25.650Z,-3.41
2019-01-24T17:35:58.243Z,-3.45
2019-01-24T17:38:30.909Z,-3.49
2019-01-24T17:41:03.565Z,-3.53
2019-01-24T17:43:36.244Z,-3.51
2019-01-24T17:46:09.410Z,-3.48
2019-01-24T17:48:42.143Z,-3.49
2019-01-24T17:51:15.664Z,-3.47
2019-01-24T17:53:48.470Z,-3.49
2019-01-24T17:56:21.150Z,-3.52
2019-01-24T17:58:53.946Z,-3.48
2019-01-24T18:01:26.843Z,-3.45
2019-01-24T18:03:59.467Z,-3.48
2019-01-24T18:06:32.290Z,-3.48
2019-01-24T18:09:07.872Z,-3.46
2019-01-24T18:11:40.619Z,-3.48
2019-01-24T18:14:13.520Z,-3.52
2019-01-24T18:16:46.356Z,-3.49
2019-01-24T18:19:19.026Z,-3.55
2019-01-24T18:21:51.784Z,-3.57
2019-01-24T18:24:24.346Z,-3.54
2019-01-24T18:26:57.155Z,-3.48
2019-01-24T18:29:29.787Z,-3.58
2019-01-24T18:32:02.569Z,-3.52
2019-01-24T18:34:35.298Z,-3.49
2019-01-24T18:37:08.060Z,-3.49
2019-01-24T18:39:40.753Z,-3.45
2019-01-24T18:42:13.781Z,-3.45
2019-01-24T18:44:46.527Z,-3.46
2019-01-24T18:47:19.320Z,-3.48
2019-01-24T18:49:52.055Z,-3.41
2019-01-24T18:52:24.769Z,-3.41
2019-01-24T18:54:57.578Z,-3.42
2019-01-24T18:57:30.296Z,-3.40
2019-01-24T19:00:03.294Z,-3.45
2019-01-24T19:02:36.033Z,-3.36
2019-01-24T19:05:10.625Z,-3.32
2019-01-24T19:07:43.414Z,-3.39
2019-01-24T19:10:16.646Z,-3.32
2019-01-24T19:12:49.729Z,-3.39
2019-01-24T19:15:22.616Z,-3.33
2019-01-24T19:17:55.635Z,-3.32
2019-01-24T19:20:28.222Z,-3.34
2019-01-24T19:23:01.024Z,-3.34
2019-01-24T19:25:33.638Z,-3.35
2019-01-24T19:28:08.590Z,-3.42
2019-01-24T19:30:41.181Z,-3.37
2019-01-24T19:33:13.964Z,-3.36
2019-01-24T19:35:46.522Z,-3.41
2019-01-24T19:38:19.367Z,-3.37
2019-01-24T19:40:52.013Z,-3.34
2019-01-24T19:43:25.108Z,-3.32
2019-01-24T19:45:57.790Z,-3.35
2019-01-24T19:48:30.416Z,-3.33
2019-01-24T19:51:04.633Z,-3.34
2019-01-24T19:53:37.454Z,-3.33
2019-01-24T19:56:10.319Z,-3.31
2019-01-24T19:58:43.143Z,-3.28
2019-01-24T20:01:15.857Z,-3.31
2019-01-24T20:03:48.505Z,-3.28
2019-01-24T20:06:21.155Z,-3.34
2019-01-24T20:08:59.974Z,-3.40
2019-01-24T20:11:28.317Z,-3.35
2019-01-24T20:14:01.090Z,-3.30
2019-01-24T20:16:33.731Z,-3.38
2019-01-24T20:19:06.889Z,-3.36
2019-01-24T20:21:39.581Z,-3.34
2019-01-24T20:24:12.576Z,-3.37
2019-01-24T20:26:45.283Z,-3.29
2019-01-24T20:29:19.439Z,-3.34
2019-01-24T20:31:52.321Z,-3.24
2019-01-24T20:34:25.035Z,-3.26
2019-01-24T20:36:57.728Z,-3.28
2019-01-24T20:39:30.356Z,-3.29
2019-01-24T20:42:05.945Z,-3.34
2019-01-24T20:44:38.588Z,-3.32
2019-01-24T20:47:11.342Z,-3.28
2019-01-24T20:49:44.179Z,-3.23
2019-01-24T20:52:16.892Z,-3.24
2019-01-24T20:54:49.517Z,-3.23
2019-01-24T20:57:22.180Z,-3.33
2019-01-24T20:59:54.800Z,-3.38
2019-01-24T21:02:27.553Z,-3.36
2019-01-24T21:05:00.204Z,-3.43
2019-01-24T21:07:32.997Z,-3.43
2019-01-24T21:10:07.644Z,-3.44
2019-01-24T21:12:40.332Z,-3.44
2019-01-24T21:15:14.943Z,-3.45
2019-01-24T21:17:47.750Z,-3.49
2019-01-24T21:20:25.896Z,-3.52
2019-01-24T21:22:58.739Z,-3.48
2019-01-24T21:25:31.435Z,-3.36
2019-01-24T21:28:04.318Z,-3.34
2019-01-24T21:30:39.294Z,-3.25
2019-01-24T21:33:11.971Z,-3.19
2019-01-24T21:35:44.611Z,-3.17
2019-01-24T21:38:17.265Z,-3.26
2019-01-24T21:40:49.937Z,-3.22
2019-01-24T21:43:22.600Z,-3.21
2019-01-24T21:45:55.318Z,-3.14
2019-01-24T21:48:28.020Z,-3.13
2019-01-24T21:51:00.965Z,-3.16
2019-01-24T21:53:33.640Z,-3.14
2019-01-24T21:56:09.388Z,-3.14
2019-01-24T21:58:42.100Z,-3.12
2019-01-24T22:01:14.443Z,-3.16
2019-01-24T22:03:47.074Z,-3.11
2019-01-24T22:06:19.739Z,-3.12
2019-01-24T22:08:52.419Z,-3.16
2019-01-24T22:11:25.102Z,-3.13
2019-01-24T22:13:57.833Z,-3.12
2019-01-24T22:16:30.405Z,-3.19
2019-01-24T22:19:03.118Z,-3.19
2019-01-24T22:21:35.716Z,-3.13
2019-01-24T22:24:08.652Z,-3.17
2019-01-24T22:26:41.357Z,-3.17
2019-01-24T22:29:14.051Z,-3.18
2019-01-24T22:31:46.833Z,-3.18
2019-01-24T22:34:22.558Z,-3.20
2019-01-24T22:36:55.311Z,-3.22
2019-01-24T22:39:28.020Z,-3.19
2019-01-24T22:42:00.702Z,-3.17
2019-01-24T22:44:33.464Z,-3.19
2019-01-24T22:47:06.034Z,-3.19
2019-01-24T22:49:38.684Z,-3.17
2019-01-24T22:52:11.465Z,-3.20
2019-01-24T22:54:44.098Z,-3.20
2019-01-24T22:57:16.780Z,-3.19
2019-01-24T22:59:49.478Z,-3.17
2019-01-24T23:02:29.991Z,-3.16
2019-01-24T23:05:02.683Z,-3.25
2019-01-24T23:07:34.801Z,-3.21
2019-01-24T23:10:10.119Z,-3.19
2019-01-24T23:12:42.827Z,-3.22
2019-01-24T23:15:16.034Z,-3.21
2019-01-24T23:17:48.754Z,-3.27
2019-01-24T23:20:21.380Z,-3.21
2019-01-24T23:22:54.328Z,-3.23
2019-01-24T23:25:27.031Z,-3.21
2019-01-24T23:27:59.756Z,-3.24
2019-01-24T23:30:32.476Z,-3.22
2019-01-24T23:33:05.577Z,-3.23
2019-01-24T23:35:38.269Z,-3.23
2019-01-24T23:38:11.116Z,-3.22
2019-01-24T23:40:43.748Z,-3.18
2019-01-24T23:43:16.365Z,-3.19
2019-01-24T23:45:49.080Z,-3.21
2019-01-24T23:48:21.770Z,-3.18
2019-01-24T23:50:54.397Z,-3.29
2019-01-24T23:53:27.097Z,-3.30
2019-01-24T23:55:59.717Z,-3.27
2019-01-24T23:58:32.409Z,-3.33
